Nearby METAR Reports

 

KCMH - Columbus, Ohio, USA
Distance from station: SW 5mi, 8km
Updated: Sun, 18-Nov-2018 12:51pm EST
Mostly cloudy
Mostly cloudy
 Wind from SW
Wind: SW 3 mph , 6 km/h
Temperature: 50°F , 10°C
Dew Point: 36°F , 2°C
Humidity: 58%
Barometer: 30.14 inHg , 1020.7 hPa
Clouds: Mostly cloudy
Visibility: 10 miles , 16 km
Cloud details: Few Clouds 4500 ft
Partly cloudy 8000 ft
Mostly cloudy 20000 ft
2018/11/18 17:51 KCMH 181751Z 22003KT 10SM FEW045 SCT080 BKN200 10/02 A3014 RMK AO2 SLP209 T01000022 10106 20039 58021
KOSU - Columbus/St Univ, Ohio, USA
Distance from station: W 14mi, 23km
Updated: Sun, 18-Nov-2018 12:53pm EST
Partly cloudy
Partly cloudy
 Wind from calm
Wind: Calm
Temperature: 48°F , 9°C
Dew Point: 36°F , 2°C
Humidity: 62%
Barometer: 30.14 inHg , 1020.7 hPa
Clouds: Partly cloudy
Visibility: 10 miles , 16 km
Cloud details: Partly cloudy 5500 ft
2018/11/18 17:53 KOSU 181753Z 00000KT 10SM SCT055 09/02 A3014 RMK AO2 SLP209 T00890022 10094 20033 58019
 
KLCK - Rickenbacker Ang, Ohio, USA
Distance from station: SSW 17mi, 27km
Updated: Sun, 18-Nov-2018 1:15pm EST
Clear
Clear
 Wind from S
Wind: S 3 mph , 6 km/h
Temperature: 50°F , 10°C
Dew Point: 37°F , 3°C
Humidity: 62%
Barometer: 30.13 inHg , 1020.3 hPa
Clouds: Clear
Visibility: 10 miles , 16 km
2018/11/18 18:15 KLCK 181815Z AUTO 17003KT 10SM CLR 10/03 A3013 RMK AO2 T01000029
KVTA - Newark, Ohio, USA
Distance from station: E 19mi, 30km
Updated: Sun, 18-Nov-2018 12:54pm EST
Clear
Clear
 Wind from SSE
Wind: SSE 5 mph , 7 km/h
Temperature: 50°F , 10°C
Wind Chill: 48°F , 9°C
Dew Point: 37°F , 3°C
Humidity: 62%
Barometer: 30.13 inHg , 1020.3 hPa
Clouds: Clear
Visibility: 10 miles , 16 km
2018/11/18 17:54 KVTA 181754Z AUTO 15004KT 10SM CLR 10/03 A3013 RMK AO2 SLP206 T01000033 10100 20028 58025
 
KTZR - Columbus/Bolton, Ohio, USA
Distance from station: WSW 20mi, 31km
Updated: Sun, 18-Nov-2018 12:50pm EST
Clear
Clear
 Wind from SSE
Wind: SSE 3 mph , 6 km/h
Temperature: 48°F , 9°C
Dew Point: 37°F , 3°C
Humidity: 66%
Barometer: 30.14 inHg , 1020.7 hPa
Clouds: Clear
Visibility: 10 miles , 16 km
2018/11/18 17:50 KTZR 181750Z 15003KT 10SM SKC 09/03 A3014
KLHQ - Lancaster, Ohio, USA
Distance from station: SSE 22mi, 36km
Updated: Sun, 18-Nov-2018 12:53pm EST
Clear
Clear
 Wind from SW
Wind: SW 9 mph , 15 km/h
Temperature: 54°F , 12°C
Dew Point: 39°F , 4°C
Humidity: 58%
Barometer: 30.13 inHg , 1020.3 hPa
Clouds: Clear
Visibility: 10 miles , 16 km
2018/11/18 17:53 KLHQ 181753Z AUTO 22008KT 10SM CLR 12/04 A3013 RMK AO2 SLP206 T01170044 10117 20022 58025
 
KDLZ - Delaware, Ohio, USA
Distance from station: NW 23mi, 36km
Updated: Sun, 18-Nov-2018 1:37pm EST
Overcast
Overcast
 Wind from N
Wind: N 6 mph , 9 km/h
Temperature: 41°F , 5°C
Wind Chill: 37°F , 3°C
Dew Point: 36°F , 2°C
Humidity: 81%
Barometer: 30.14 inHg , 1020.7 hPa
Clouds: Overcast
Visibility: 7 miles , 11 km
Cloud details: Overcast 4100 ft
2018/11/18 18:37 KDLZ 181837Z AUTO 36005KT 7SM OVC041 05/02 A3014 RMK AO2
K4I3 - Mt Vernon/Knox, Ohio, USA
Distance from station: NE 25mi, 40km
Updated: Sun, 18-Nov-2018 1:36pm EST
Overcast
Overcast
 Wind from NNE
Wind: NNE 5 mph , 7 km/h
Temperature: 41°F , 5°C
Wind Chill: 38°F , 3°C
Dew Point: 39°F , 4°C
Humidity: 93%
Barometer: 30.14 inHg , 1020.7 hPa
Clouds: Overcast
Visibility: 7 miles , 11 km
Cloud details: Overcast 4100 ft
2018/11/18 18:36 K4I3 181836Z AUTO 03004KT 7SM OVC041 05/04 A3014 RMK AO2
 
KMRT - Marysville, Ohio, USA
Distance from station: WNW 30mi, 49km
Updated: Sun, 18-Nov-2018 1:35pm EST
Overcast
Overcast
 Wind from N
Wind: N 7 mph , 11 km/h
Temperature: 41°F , 5°C
Wind Chill: 36°F , 2°C
Dew Point: 36°F , 2°C
Humidity: 81%
Barometer: 30.15 inHg , 1021 hPa
Clouds: Overcast
Visibility: 7 miles , 11 km
Cloud details: Overcast 3900 ft
2018/11/18 18:35 KMRT 181835Z AUTO 01006KT 7SM OVC039 05/02 A3015 RMK AO2 T00540022
KMNN - Marion, Ohio, USA
Distance from station: NNW 41mi, 67km
Updated: Sun, 18-Nov-2018 12:53pm EST
Haze, Overcast
Haze, Overcast
 
Temperature: 39°F , 4°C
Dew Point: 36°F , 2°C
Humidity: 87%
Barometer: 30.17 inHg , 1021.7 hPa
Summary: Haze
Clouds: Overcast
Visibility: 4 miles , 6 km
Cloud details: Partly cloudy 3500 ft
Overcast 4300 ft
2018/11/18 17:53 KMNN 181753Z AUTO 4SM HZ SCT035 OVC043 04/02 A3017 RMK AO2 SLP224 T00440017 10044 20028 58018
 
KZZV - Zanesville, Ohio, USA
Distance from station: E 49mi, 79km
Updated: Sun, 18-Nov-2018 12:53pm EST
Clear
Clear
 Wind from calm
Wind: Calm
Temperature: 52°F , 11°C
Dew Point: 36°F , 2°C
Humidity: 54%
Barometer: 30.13 inHg , 1020.3 hPa
Clouds: Clear
Visibility: 10 miles , 16 km
2018/11/18 17:53 KZZV 181753Z AUTO 00000KT 10SM CLR 11/02 A3013 RMK AO2 SLP208 T01060022 10106 20011 58025